Time;durP1;ratioP1;P1;durP2;ratioP2;P2;SDS_P1;SDS_P2;PMS_P1;PMS_P2;Temp;Humidity;BMP_temperature;BMP_pressure;BME280_temperature;BME280_humidity;BME280_pressure;Samples;Min_cycle;Max_cycle;Signal;HPM_P1;HPM_P2
2022/10/16 00:01:43;;;;;;;5.85;3.25;;;;;;;12.18;91.20;100939.97;5028945;28;20049;-70
2022/10/16 00:04:12;;;;;;;6.25;3.67;;;;;;;12.18;91.31;100938.22;5031154;28;20048;-71
2022/10/16 00:06:39;;;;;;;7.15;3.22;;;;;;;12.19;91.48;100941.69;5030048;28;20109;-70
2022/10/16 00:09:07;;;;;;;5.82;3.38;;;;;;;12.18;91.41;100945.25;5032931;28;20058;-71
2022/10/16 00:11:37;;;;;;;7.22;3.45;;;;;;;12.20;91.30;100948.72;5029689;28;20057;-70
2022/10/16 00:14:09;;;;;;;12.15;3.67;;;;;;;12.19;91.11;100933.78;5029735;28;20511;-70
2022/10/16 00:16:36;;;;;;;7.53;3.47;;;;;;;12.19;91.52;100939.06;5029909;28;20045;-70
2022/10/16 00:19:03;;;;;;;8.02;3.30;;;;;;;12.16;91.54;100939.19;5030919;28;20482;-70
2022/10/16 00:21:31;;;;;;;5.57;3.53;;;;;;;12.16;91.56;100940.03;5030806;28;20061;-69
2022/10/16 00:24:03;;;;;;;7.78;3.45;;;;;;;12.17;91.79;100935.59;5030948;28;20075;-70
2022/10/16 00:26:33;;;;;;;9.43;3.28;;;;;;;12.15;91.73;100932.16;5030901;28;20093;-71
2022/10/16 00:29:00;;;;;;;5.18;3.28;;;;;;;12.13;91.76;100939.28;5041557;28;20050;-71
2022/10/16 00:31:28;;;;;;;7.18;3.30;;;;;;;12.10;91.74;100938.47;5023321;28;20034;-72
2022/10/16 00:33:56;;;;;;;7.85;3.65;;;;;;;12.09;91.92;100928.81;5027219;28;20034;-71
2022/10/16 00:36:25;;;;;;;6.97;3.60;;;;;;;12.06;91.82;100936.84;5030751;28;20125;-71
2022/10/16 00:38:55;;;;;;;6.53;3.47;;;;;;;12.04;92.06;100937.81;5030409;28;20124;-71
2022/10/16 00:41:24;;;;;;;5.13;3.30;;;;;;;12.03;92.05;100941.38;5030175;28;20121;-70
2022/10/16 00:43:57;;;;;;;5.43;3.40;;;;;;;11.99;92.05;100945.06;5029128;28;20124;-71
2022/10/16 00:46:42;;;;;;;6.30;3.40;;;;;;;11.96;92.11;100944.22;5028201;28;20046;-70
2022/10/16 00:49:14;;;;;;;8.02;3.50;;;;;;;11.93;92.35;100933.72;5029388;28;20479;-70
2022/10/16 00:51:47;;;;;;;6.38;3.05;;;;;;;11.91;92.17;100935.56;5031374;28;20069;-71
2022/10/16 00:54:21;;;;;;;6.93;2.90;;;;;;;11.88;92.34;100940.97;5030240;28;20030;-70
2022/10/16 00:56:49;;;;;;;5.88;3.10;;;;;;;11.86;92.48;100942.78;5030517;28;20044;-70
2022/10/16 00:59:25;;;;;;;5.47;3.30;;;;;;;11.82;92.46;100938.50;5030931;28;20054;-71
2022/10/16 01:01:55;;;;;;;5.13;2.85;;;;;;;11.82;92.59;100938.50;5030359;28;20050;-70
2022/10/16 01:04:25;;;;;;;5.03;3.40;;;;;;;11.80;92.55;100933.31;5028955;28;20045;-70
2022/10/16 01:07:12;;;;;;;4.75;2.83;;;;;;;11.80;92.65;100940.38;5031030;28;20042;-70
2022/10/16 01:10:37;;;;;;;7.13;3.20;;;;;;;11.78;92.84;100936.91;5021825;28;20124;-72
2022/10/16 01:13:09;;;;;;;4.95;3.38;;;;;;;11.77;92.84;100936.03;5029706;28;20042;-71
2022/10/16 01:16:06;;;;;;;9.00;3.63;;;;;;;11.79;93.20;100930.72;5029227;28;20038;-70
2022/10/16 01:18:43;;;;;;;5.15;3.40;;;;;;;11.78;93.09;100936.91;5027636;28;20550;-70
2022/10/16 01:21:42;;;;;;;7.28;2.88;;;;;;;11.77;93.45;100922.81;5030985;28;20187;-70
2022/10/16 01:24:32;;;;;;;5.20;3.00;;;;;;;11.75;93.04;100924.66;5029316;28;20523;-70
2022/10/16 01:27:17;;;;;;;7.30;3.00;;;;;;;11.76;93.36;100922.88;5029278;28;20570;-70
2022/10/16 01:29:59;;;;;;;5.22;2.78;;;;;;;11.78;93.57;100929.84;5030580;28;20097;-70
2022/10/16 01:32:50;;;;;;;3.20;2.58;;;;;;;11.79;93.57;100931.56;5026503;28;20042;-70
2022/10/16 01:35:32;;;;;;;4.22;2.50;;;;;;;11.81;93.58;100928.88;5029979;28;20049;-70
2022/10/16 01:38:10;;;;;;;7.22;2.72;;;;;;;11.83;93.75;100937.59;5029503;28;20046;-70
2022/10/16 01:40:44;;;;;;;7.15;2.90;;;;;;;11.86;93.73;100940.16;5027664;28;20534;-70
2022/10/16 01:43:19;;;;;;;8.70;2.90;;;;;;;11.87;93.65;100928.69;5018324;28;20042;-70
2022/10/16 01:45:48;;;;;;;4.88;2.58;;;;;;;11.90;93.89;100939.16;5028682;28;20119;-70
2022/10/16 01:48:21;;;;;;;7.90;3.05;;;;;;;11.92;93.94;100939.09;5025337;28;20100;-70
2022/10/16 01:51:06;;;;;;;4.13;2.63;;;;;;;11.95;94.02;100939.84;5031317;28;20081;-70
2022/10/16 01:53:33;;;;;;;7.28;2.90;;;;;;;11.99;94.08;100935.34;5028986;28;20041;-70
2022/10/16 01:56:08;;;;;;;5.35;2.78;;;;;;;12.01;94.25;100932.63;5029755;28;20046;-70
2022/10/16 01:58:49;;;;;;;7.22;2.72;;;;;;;12.04;94.38;100941.34;5030724;28;20053;-70
2022/10/16 02:01:20;;;;;;;5.00;2.85;;;;;;;12.09;94.30;100944.66;5023678;28;20042;-70
2022/10/16 02:03:58;;;;;;;4.10;2.55;;;;;;;12.14;94.27;100939.22;5025840;28;20070;-70
2022/10/16 02:06:25;;;;;;;4.88;2.50;;;;;;;12.16;94.09;100945.31;5028512;28;20030;-70
2022/10/16 02:08:53;;;;;;;5.30;2.50;;;;;;;12.17;94.04;100946.16;5030211;28;20042;-70
2022/10/16 02:11:20;;;;;;;4.18;2.60;;;;;;;12.17;93.87;100947.06;5030292;28;20041;-69
2022/10/16 02:14:03;;;;;;;4.55;2.15;;;;;;;12.20;93.87;100954.00;5030394;28;20069;-70
2022/10/16 02:16:48;;;;;;;3.30;2.17;;;;;;;12.20;93.80;100948.72;5023776;28;20042;-74
2022/10/16 02:19:21;;;;;;;4.40;2.90;;;;;;;12.20;93.71;100948.72;5017541;28;20038;-74
2022/10/16 02:21:56;;;;;;;2.75;2.15;;;;;;;12.19;93.89;100947.88;5013388;28;20956;-75
2022/10/16 02:24:59;;;;;;;;;;;;;;;12.23;93.95;100954.75;5029354;28;20068;-74
2022/10/16 02:27:51;;;;;;;3.53;2.10;;;;;;;12.31;93.95;100959.78;5029046;28;19925;-75
2022/10/16 02:30:37;;;;;;;4.80;2.15;;;;;;;12.35;93.87;100963.16;5026127;28;20049;-76
2022/10/16 02:33:10;;;;;;;4.03;2.20;;;;;;;12.39;93.72;100947.13;5023680;28;20038;-75
2022/10/16 02:35:38;;;;;;;3.10;2.08;;;;;;;12.43;93.61;100951.41;5026066;28;20049;-76
2022/10/16 02:38:08;;;;;;;4.57;2.10;;;;;;;12.46;93.35;100950.44;5029549;28;20050;-75
2022/10/16 02:40:41;;;;;;;7.95;2.10;;;;;;;12.47;93.17;100948.63;5025931;28;20046;-75
2022/10/16 02:43:09;;;;;;;4.50;2.20;;;;;;;12.45;92.85;100945.19;5023626;28;20100;-75
2022/10/16 02:45:37;;;;;;;4.72;2.20;;;;;;;12.40;92.54;100950.66;5027559;28;20045;-74
2022/10/16 02:48:05;;;;;;;5.55;2.40;;;;;;;12.35;92.43;100948.19;5026025;28;20042;-70
2022/10/16 02:50:35;;;;;;;5.53;3.08;;;;;;;12.30;92.31;100933.41;5028541;28;20120;-70
2022/10/16 02:53:02;;;;;;;3.08;1.90;;;;;;;12.24;92.33;100945.06;5028103;28;20038;-70
2022/10/16 02:55:29;;;;;;;3.83;1.98;;;;;;;12.20;92.26;100956.66;5028085;28;20108;-71
2022/10/16 02:57:56;;;;;;;2.70;1.90;;;;;;;12.15;92.25;100948.03;5027908;28;20042;-70
2022/10/16 03:00:23;;;;;;;2.97;2.10;;;;;;;12.09;92.36;100944.66;5030689;28;20045;-70
2022/10/16 03:02:51;;;;;;;5.78;2.00;;;;;;;12.05;92.41;100935.16;5029251;28;20132;-69
2022/10/16 03:05:18;;;;;;;3.40;2.03;;;;;;;12.02;92.36;100940.53;5025724;28;20045;-70
2022/10/16 03:07:45;;;;;;;5.10;1.88;;;;;;;12.00;92.47;100934.41;5027584;28;20042;-70
2022/10/16 03:10:12;;;;;;;3.65;2.05;;;;;;;11.96;92.71;100936.28;5024956;28;20060;-72
2022/10/16 03:12:40;;;;;;;2.45;1.90;;;;;;;11.93;92.54;100936.38;5026786;28;20046;-72
2022/10/16 03:15:08;;;;;;;2.70;1.95;;;;;;;11.92;92.79;100939.09;5023712;28;20042;-71
2022/10/16 03:17:35;;;;;;;2.45;1.63;;;;;;;11.88;92.68;100948.91;5026158;28;20034;-71
2022/10/16 03:20:03;;;;;;;3.55;2.10;;;;;;;11.86;92.94;100949.84;5028353;28;20041;-71
2022/10/16 03:22:30;;;;;;;2.08;1.75;;;;;;;11.85;92.93;100958.72;5026887;28;20074;-71
2022/10/16 03:24:58;;;;;;;4.13;1.95;;;;;;;11.83;92.96;100961.38;5029912;28;20041;-71
2022/10/16 03:27:25;;;;;;;3.25;2.00;;;;;;;11.81;92.91;100963.19;5028120;28;20100;-71
2022/10/16 03:29:53;;;;;;;3.15;2.00;;;;;;;11.81;92.88;100964.09;5028507;28;20053;-71
2022/10/16 03:32:21;;;;;;;4.30;2.08;;;;;;;11.81;93.08;100964.09;5027705;28;20069;-71
2022/10/16 03:34:48;;;;;;;2.53;1.83;;;;;;;11.82;93.15;100975.50;5029496;28;20118;-70
2022/10/16 03:37:15;;;;;;;4.78;1.77;;;;;;;11.83;93.22;100982.50;5028557;28;20065;-71
2022/10/16 03:39:42;;;;;;;3.63;2.10;;;;;;;11.84;93.19;100972.81;5024357;28;20065;-70
2022/10/16 03:42:09;;;;;;;3.03;2.10;;;;;;;11.85;93.29;100980.69;5014595;28;20092;-70
2022/10/16 03:44:36;;;;;;;3.90;1.90;;;;;;;11.86;93.12;100978.91;5028047;28;20061;-71
2022/10/16 03:47:03;;;;;;;2.42;1.60;;;;;;;11.89;93.31;100984.09;5027277;28;20933;-71
2022/10/16 03:49:30;;;;;;;3.17;1.85;;;;;;;11.91;93.41;100991.03;5027075;28;20045;-72
2022/10/16 03:51:57;;;;;;;4.55;1.80;;;;;;;11.90;93.28;100984.06;5027312;28;20046;-72
2022/10/16 03:54:25;;;;;;;3.60;1.88;;;;;;;11.91;93.20;100977.81;5027317;28;20053;-71
2022/10/16 03:56:52;;;;;;;3.42;1.75;;;;;;;11.93;93.27;100980.44;5022646;28;20038;-70
2022/10/16 03:59:19;;;;;;;2.78;1.90;;;;;;;11.95;93.20;100981.25;5028570;28;20096;-70
2022/10/16 04:01:46;;;;;;;2.08;1.77;;;;;;;11.96;93.25;100980.31;5031720;28;20041;-70
2022/10/16 04:04:13;;;;;;;2.85;1.80;;;;;;;11.95;93.18;100992.66;5031918;28;20045;-70
2022/10/16 04:06:40;;;;;;;3.50;2.00;;;;;;;11.94;93.14;100984.81;5031344;28;20877;-70
2022/10/16 04:09:07;;;;;;;5.50;2.35;;;;;;;11.93;93.06;100985.72;5026983;28;20041;-70
2022/10/16 04:11:35;;;;;;;3.28;1.83;;;;;;;11.92;93.11;100995.41;5030988;28;20515;-71
2022/10/16 04:14:02;;;;;;;2.42;1.60;;;;;;;11.93;93.16;100994.50;5030886;28;20544;-68
2022/10/16 04:16:30;;;;;;;3.17;1.70;;;;;;;11.91;93.20;100993.69;5030656;28;20072;-68
2022/10/16 04:18:57;;;;;;;3.40;1.83;;;;;;;11.92;93.29;100989.28;5030486;28;20100;-68
2022/10/16 04:21:24;;;;;;;4.13;1.98;;;;;;;11.92;93.30;100992.75;5031117;28;20527;-68
2022/10/16 04:23:51;;;;;;;3.55;1.70;;;;;;;11.92;93.21;101002.47;5027519;28;21999;-70
2022/10/16 04:26:18;;;;;;;4.90;2.08;;;;;;;11.91;93.25;100998.13;5029803;28;20045;-72
2022/10/16 04:28:45;;;;;;;3.40;1.83;;;;;;;11.92;93.40;101002.47;5029920;28;20852;-70
2022/10/16 04:31:12;;;;;;;5.13;1.73;;;;;;;11.91;93.22;101004.25;5032587;28;20092;-70
2022/10/16 04:33:43;;;;;;;4.53;1.90;;;;;;;11.91;93.25;101003.41;5030466;28;20103;-70
2022/10/16 04:36:10;;;;;;;2.30;1.63;;;;;;;11.91;93.25;101011.31;5031682;28;20046;-70
2022/10/16 04:38:39;;;;;;;4.20;1.67;;;;;;;11.90;93.37;101014.88;5031931;28;20053;-70
2022/10/16 04:41:07;;;;;;;2.95;2.00;;;;;;;11.89;93.32;101015.78;5028975;28;20034;-70
2022/10/16 04:43:34;;;;;;;5.82;2.00;;;;;;;11.90;93.38;101020.16;5025702;28;20500;-69
2022/10/16 04:46:04;;;;;;;1.73;1.48;;;;;;;11.91;93.50;101012.16;5028100;28;20061;-69
2022/10/16 04:48:32;;;;;;;4.05;1.73;;;;;;;11.92;93.65;101016.53;5022525;28;20499;-69
2022/10/16 04:50:59;;;;;;;4.50;1.95;;;;;;;11.94;93.59;101019.16;5030563;28;20080;-70
2022/10/16 04:53:28;;;;;;;3.17;1.80;;;;;;;11.94;93.44;101029.72;5028402;28;20034;-70
2022/10/16 04:55:56;;;;;;;3.20;1.88;;;;;;;11.93;93.38;101028.00;5022433;28;20049;-70
2022/10/16 04:58:23;;;;;;;3.80;1.80;;;;;;;11.93;93.44;101028.00;5029304;28;20049;-70
2022/10/16 05:00:51;;;;;;;4.38;1.70;;;;;;;11.91;93.49;101028.03;5030740;28;20053;-70
2022/10/16 05:03:18;;;;;;;4.07;1.50;;;;;;;11.91;93.35;101033.31;5025850;28;20085;-70
2022/10/16 05:05:46;;;;;;;3.22;1.70;;;;;;;11.89;93.72;101035.16;5032166;28;20042;-70
2022/10/16 05:08:15;;;;;;;3.35;1.73;;;;;;;11.87;93.31;101042.25;5028772;28;20092;-70
2022/10/16 05:10:44;;;;;;;4.20;1.55;;;;;;;11.84;93.44;101044.16;5028776;28;20526;-70
2022/10/16 05:13:11;;;;;;;3.33;1.77;;;;;;;11.83;93.47;101037.13;5026010;28;20535;-70
2022/10/16 05:15:39;;;;;;;4.20;1.80;;;;;;;11.80;93.72;101031.03;5032338;28;20136;-70
2022/10/16 05:18:06;;;;;;;3.25;1.88;;;;;;;11.80;93.68;101044.22;5021788;28;20090;-70
2022/10/16 05:20:33;;;;;;;3.35;1.70;;;;;;;11.80;93.68;101048.66;5030520;28;20050;-70
2022/10/16 05:23:01;;;;;;;4.57;1.75;;;;;;;11.80;93.67;101046.03;5030096;28;20185;-71
2022/10/16 05:25:28;;;;;;;5.78;1.90;;;;;;;11.79;93.67;101058.34;5027128;28;20535;-71
2022/10/16 05:27:55;;;;;;;3.15;1.98;;;;;;;11.79;93.77;101049.56;5028434;28;20038;-70
2022/10/16 05:30:22;;;;;;;3.55;2.00;;;;;;;11.78;93.75;101053.13;5027688;28;20538;-72
2022/10/16 05:32:51;;;;;;;4.32;1.98;;;;;;;11.75;93.83;101051.44;5023908;28;20042;-72
2022/10/16 05:35:20;;;;;;;2.75;1.95;;;;;;;11.76;94.12;101050.50;5027697;28;20101;-71
2022/10/16 05:37:47;;;;;;;4.05;1.85;;;;;;;11.77;93.93;101064.59;5026462;28;20038;-71
2022/10/16 05:40:16;;;;;;;7.47;1.90;;;;;;;11.76;93.99;101061.06;5024115;28;20144;-71
2022/10/16 05:42:43;;;;;;;3.00;2.00;;;;;;;11.75;94.14;101066.41;5029274;28;20534;-71
2022/10/16 05:45:11;;;;;;;2.60;1.80;;;;;;;11.75;94.01;101072.56;5027104;28;20096;-70
2022/10/16 05:47:39;;;;;;;4.43;1.67;;;;;;;11.75;94.24;101075.19;5026940;28;20092;-71
2022/10/16 05:50:07;;;;;;;4.20;1.90;;;;;;;11.73;94.15;101087.59;5030247;28;20050;-70
2022/10/16 05:52:34;;;;;;;4.38;1.80;;;;;;;11.73;94.15;101087.59;5027549;28;20045;-71
2022/10/16 05:55:03;;;;;;;3.92;1.95;;;;;;;11.74;94.26;101091.97;5029316;28;20030;-70
2022/10/16 05:57:31;;;;;;;3.40;1.73;;;;;;;11.74;94.28;101099.91;5024284;28;20054;-70
2022/10/16 05:59:58;;;;;;;3.00;1.85;;;;;;;11.74;94.22;101107.84;5029874;28;20209;-70
2022/10/16 06:02:25;;;;;;;3.03;1.95;;;;;;;11.75;94.27;101116.59;5030765;28;20042;-70
2022/10/16 06:04:55;;;;;;;5.13;2.20;;;;;;;11.74;94.27;101130.72;5027755;28;20054;-70
2022/10/16 06:07:23;;;;;;;2.75;1.63;;;;;;;11.75;94.32;101137.72;5027616;28;20077;-72
2022/10/16 06:09:53;;;;;;;2.40;1.70;;;;;;;11.76;94.46;101139.47;5029445;28;20050;-71
2022/10/16 06:12:20;;;;;;;2.97;1.80;;;;;;;11.77;94.40;101139.41;5024394;28;20038;-71
2022/10/16 06:14:48;;;;;;;2.65;1.83;;;;;;;11.80;94.59;101144.59;5025563;28;20042;-73
2022/10/16 06:17:19;;;;;;;4.68;1.80;;;;;;;11.88;94.65;101154.06;5027532;28;20049;-72
2022/10/16 06:19:47;;;;;;;4.90;1.80;;;;;;;11.91;94.60;101156.63;5027451;28;20056;-72
2022/10/16 06:22:15;;;;;;;4.05;1.77;;;;;;;11.93;94.47;101160.09;5027654;28;20092;-73
2022/10/16 06:24:43;;;;;;;4.68;1.95;;;;;;;11.94;94.52;101160.03;5025869;28;20096;-72
2022/10/16 06:27:12;;;;;;;5.00;2.10;;;;;;;12.01;94.55;101170.44;5020335;28;20050;-71
2022/10/16 06:29:39;;;;;;;4.80;2.05;;;;;;;12.03;94.54;101176.53;5027218;28;20046;-72
2022/10/16 06:32:06;;;;;;;3.28;1.80;;;;;;;12.04;94.53;101167.69;5028928;28;20519;-72
2022/10/16 06:34:34;;;;;;;5.45;1.80;;;;;;;12.09;94.53;101173.72;5024260;28;20917;-71
2022/10/16 06:37:02;;;;;;;5.45;1.92;;;;;;;12.11;94.44;101175.41;5030063;28;20042;-72
2022/10/16 06:39:29;;;;;;;3.92;2.00;;;;;;;12.14;94.47;101173.56;5028496;28;20100;-71
2022/10/16 06:41:56;;;;;;;4.22;1.98;;;;;;;12.17;94.38;101178.75;5030887;28;20034;-69
2022/10/16 06:44:28;;;;;;;3.65;1.80;;;;;;;12.23;94.38;101181.22;5041801;28;20052;-72
2022/10/16 06:46:57;;;;;;;6.60;2.28;;;;;;;12.25;94.28;101182.03;5030044;28;20044;-72
2022/10/16 06:49:25;;;;;;;2.10;1.60;;;;;;;12.30;94.09;101189.81;5029916;28;20530;-71
2022/10/16 06:51:52;;;;;;;2.72;1.70;;;;;;;12.37;94.06;101197.47;5027931;28;20133;-70
2022/10/16 06:54:19;;;;;;;4.78;2.10;;;;;;;12.46;94.01;101198.13;5030088;28;20034;-72
2022/10/16 06:56:46;;;;;;;2.67;1.90;;;;;;;12.52;93.80;101204.06;5030798;28;20116;-72
2022/10/16 06:59:14;;;;;;;3.67;1.70;;;;;;;12.61;93.38;101202.03;5030340;28;20038;-71
2022/10/16 07:01:41;;;;;;;5.38;1.92;;;;;;;12.67;93.26;101210.63;5028127;28;20483;-71
2022/10/16 07:04:08;;;;;;;3.92;1.95;;;;;;;12.73;92.99;101209.53;5024804;28;20136;-71
2022/10/16 07:06:35;;;;;;;2.80;1.70;;;;;;;12.82;92.85;101209.22;5020298;28;20605;-72
2022/10/16 07:09:08;;;;;;;5.40;1.70;;;;;;;12.91;92.81;101216.00;5029991;28;20117;-72
2022/10/16 07:11:38;;;;;;;2.30;1.52;;;;;;;12.98;92.53;101220.16;5025736;28;20045;-72
2022/10/16 07:14:17;;;;;;;5.00;1.67;;;;;;;13.05;92.25;101226.13;5028015;28;20054;-71
2022/10/16 07:16:45;;;;;;;2.38;1.67;;;;;;;13.13;91.88;101231.16;5028459;28;20049;-69
2022/10/16 07:19:14;;;;;;;2.53;1.45;;;;;;;13.18;92.06;101235.38;5025740;28;20151;-70
2022/10/16 07:21:43;;;;;;;5.57;1.65;;;;;;;13.25;91.45;101243.97;5028184;28;20050;-70
2022/10/16 07:24:15;;;;;;;1.98;1.52;;;;;;;13.32;91.19;101248.13;5027014;28;20096;-70
2022/10/16 07:26:45;;;;;;;3.88;1.67;;;;;;;13.42;91.02;101245.16;5027088;28;20066;-72
2022/10/16 07:29:19;;;;;;;2.85;1.65;;;;;;;13.48;90.84;101250.25;5035497;28;20038;-71
2022/10/16 07:31:49;;;;;;;3.40;1.52;;;;;;;13.57;90.45;101263.19;5028359;28;20527;-72
2022/10/16 07:34:21;;;;;;;6.07;1.48;;;;;;;13.62;90.36;101255.91;5017293;28;20412;-73
2022/10/16 07:36:50;;;;;;;3.30;1.40;;;;;;;13.70;89.72;101266.22;5025644;28;20128;-70
2022/10/16 07:39:49;;;;;;;3.42;1.67;;;;;;;13.80;89.13;101275.56;5031626;28;20467;-70
2022/10/16 07:42:16;;;;;;;5.10;1.50;;;;;;;13.89;88.80;101273.50;5032709;28;20050;-71
2022/10/16 07:44:50;;;;;;;4.85;1.67;;;;;;;13.98;88.87;101283.75;5032579;28;20513;-72
2022/10/16 07:47:18;;;;;;;3.80;1.67;;;;;;;14.07;88.80;101277.25;5032668;28;20094;-70
2022/10/16 07:49:47;;;;;;;2.80;1.40;;;;;;;14.15;88.50;101283.13;5032473;28;20138;-68
2022/10/16 07:52:16;;;;;;;3.03;1.80;;;;;;;14.24;88.08;101289.88;5029626;28;20040;-68
2022/10/16 07:54:44;;;;;;;3.55;1.70;;;;;;;14.25;87.82;101294.22;5030684;28;20053;-69
2022/10/16 07:57:18;;;;;;;7.05;1.60;;;;;;;14.31;87.53;101293.13;5023363;28;20034;-69
2022/10/16 07:59:47;;;;;;;4.47;1.65;;;;;;;14.41;86.59;101299.78;5048286;28;20049;-68
2022/10/16 08:02:15;;;;;;;3.10;1.50;;;;;;;14.47;86.39;101302.22;5028088;28;20037;-70
2022/10/16 08:04:43;;;;;;;3.20;1.30;;;;;;;14.55;86.48;101307.22;5034547;28;20041;-70
2022/10/16 08:07:12;;;;;;;3.28;1.45;;;;;;;14.63;85.99;101315.75;5034695;28;20038;-69
2022/10/16 08:09:40;;;;;;;3.72;1.33;;;;;;;14.67;86.04;101311.22;5025880;28;20034;-68
2022/10/16 08:12:10;;;;;;;3.38;1.40;;;;;;;14.73;85.30;101311.84;5027999;28;20054;-70
2022/10/16 08:14:38;;;;;;;6.13;1.60;;;;;;;14.80;84.74;101322.19;5031097;28;20052;-70
2022/10/16 08:17:14;;;;;;;3.08;1.10;;;;;;;14.84;84.80;101329.97;5029487;28;20579;-70
2022/10/16 08:19:51;;;;;;;2.92;1.45;;;;;;;14.88;83.77;101331.59;5026999;28;20050;-72
2022/10/16 08:22:19;;;;;;;2.85;1.27;;;;;;;14.93;83.32;101336.69;5017898;28;20543;-69
2022/10/16 08:24:47;;;;;;;3.63;1.17;;;;;;;14.97;83.71;101338.28;5033114;28;20077;-69
2022/10/16 08:27:16;;;;;;;5.57;1.40;;;;;;;15.01;83.90;101337.25;5028387;28;20042;-69
2022/10/16 08:29:44;;;;;;;5.93;1.38;;;;;;;15.07;83.22;101342.28;5027945;28;20150;-68
2022/10/16 08:32:17;;;;;;;5.00;1.35;;;;;;;15.11;83.07;101345.69;5029423;28;20038;-69
2022/10/16 08:34:49;;;;;;;4.90;1.30;;;;;;;15.15;82.90;101351.75;5031206;28;20042;-70
2022/10/16 08:37:17;;;;;;;2.28;1.17;;;;;;;15.20;82.21;101363.91;5024482;28;20512;-69
2022/10/16 08:39:44;;;;;;;2.17;1.33;;;;;;;15.25;81.94;101354.88;5029434;28;20049;-70
2022/10/16 08:42:29;;;;;;;3.03;1.20;;;;;;;15.32;82.11;101362.53;5029695;28;20046;-70
2022/10/16 08:45:40;;;;;;;4.13;1.50;;;;;;;15.40;82.36;101358.69;5027681;28;20046;-69
2022/10/16 08:48:25;;;;;;;3.97;1.45;;;;;;;15.44;82.04;101371.75;5028624;28;20115;-70
2022/10/16 08:50:54;;;;;;;5.47;1.20;;;;;;;15.50;81.39;101366.22;5046778;28;20061;-69
2022/10/16 08:53:35;;;;;;;4.47;1.40;;;;;;;15.58;80.20;101370.31;5043767;28;20045;-69
2022/10/16 08:56:03;;;;;;;2.60;1.10;;;;;;;15.62;79.83;101374.56;5026632;28;20086;-70
2022/10/16 08:58:31;;;;;;;3.25;1.27;;;;;;;15.65;80.00;101370.00;5029022;28;20122;-70
2022/10/16 09:01:13;;;;;;;4.75;1.60;;;;;;;15.72;79.53;101377.69;5028425;28;20553;-71
2022/10/16 09:04:28;;;;;;;3.95;1.40;;;;;;;15.87;79.32;101386.81;5027744;28;20169;-71
2022/10/16 09:07:04;;;;;;;4.18;1.63;;;;;;;15.90;79.45;101379.56;5029928;28;20112;-72
2022/10/16 09:09:58;;;;;;;8.23;2.67;;;;;;;15.98;78.89;101387.22;5042058;28;20606;-76
2022/10/16 09:12:35;;;;;;;9.88;5.63;;;;;;;16.02;78.21;101395.91;5047862;28;20038;-71
2022/10/16 09:15:17;;;;;;;16.67;10.10;;;;;;;16.04;78.41;101391.41;5046277;28;20057;-71
2022/10/16 09:17:58;;;;;;;19.70;15.38;;;;;;;15.94;78.78;101391.81;5031064;28;20042;-72
2022/10/16 09:20:51;;;;;;;10.82;7.13;;;;;;;16.04;78.77;101396.72;5044013;28;20058;-70
2022/10/16 09:23:35;;;;;;;4.30;2.05;;;;;;;16.03;78.28;101408.28;5028104;28;20038;-70
2022/10/16 09:26:09;;;;;;;10.30;5.60;;;;;;;15.98;77.78;101409.34;5048633;28;21183;-70
2022/10/16 09:28:37;;;;;;;3.72;1.65;;;;;;;15.89;78.67;101409.75;5014718;28;20046;-70
2022/10/16 09:31:05;;;;;;;4.35;1.13;;;;;;;15.94;78.38;101417.53;5021580;28;20042;-71
2022/10/16 09:33:40;;;;;;;5.70;2.72;;;;;;;16.05;77.73;101409.09;5026039;28;20045;-69
2022/10/16 09:36:11;;;;;;;5.95;3.20;;;;;;;16.15;78.27;101413.06;5026752;28;20528;-70
2022/10/16 09:38:38;;;;;;;7.38;1.90;;;;;;;16.33;77.83;101426.47;5024485;28;20496;-70
2022/10/16 09:41:19;;;;;;;7.03;1.20;;;;;;;16.38;76.63;101427.97;5025092;28;20538;-70
2022/10/16 09:43:57;;;;;;;6.95;1.23;;;;;;;16.34;76.98;101421.06;5025139;28;20038;-71
2022/10/16 09:46:35;;;;;;;7.22;3.72;;;;;;;16.41;76.95;101408.34;5026891;28;20072;-72
2022/10/16 09:49:20;;;;;;;23.20;15.65;;;;;;;16.52;75.88;101414.03;5024372;28;20100;-73
2022/10/16 09:51:48;;;;;;;20.27;12.10;;;;;;;16.64;75.83;101409.94;5023043;28;20571;-73
2022/10/16 09:54:19;;;;;;;5.50;1.20;;;;;;;16.85;74.79;101417.84;5024837;28;20038;-72
2022/10/16 09:56:51;;;;;;;8.38;3.80;;;;;;;16.95;73.46;101420.97;5031072;28;20046;-71
2022/10/16 09:59:26;;;;;;;7.00;2.83;;;;;;;16.92;74.56;101428.13;5025764;28;20038;-72
2022/10/16 10:01:55;;;;;;;8.27;3.05;;;;;;;17.06;71.15;101421.31;5031659;28;20038;-71
2022/10/16 10:04:25;;;;;;;4.03;1.25;;;;;;;17.14;70.39;101431.63;5030172;28;20499;-71
2022/10/16 10:06:58;;;;;;;7.43;1.45;;;;;;;17.30;69.84;101426.38;5022106;28;20070;-71
2022/10/16 10:09:37;;;;;;;5.32;2.22;;;;;;;17.37;69.39;101426.00;5028010;28;20060;-72
2022/10/16 10:12:17;;;;;;;8.18;2.58;;;;;;;17.47;70.29;101423.75;5019401;28;20050;-72
2022/10/16 10:14:53;;;;;;;7.40;3.40;;;;;;;17.60;70.49;101425.81;5029650;28;20139;-73
2022/10/16 10:17:31;;;;;;;7.93;4.10;;;;;;;17.49;70.51;101429.88;5031622;28;20495;-73
2022/10/16 10:20:30;;;;;;;4.20;1.27;;;;;;;17.59;70.23;101432.94;5029501;28;20042;-70
2022/10/16 10:22:58;;;;;;;8.50;1.38;;;;;;;17.62;69.08;101431.91;5033956;28;20046;-70
2022/10/16 10:25:37;;;;;;;6.15;1.35;;;;;;;17.50;68.75;101441.38;5035678;28;20053;-71
2022/10/16 10:28:43;;;;;;;7.30;1.42;;;;;;;17.49;69.20;101443.19;5030821;28;20073;-71
2022/10/16 10:32:05;;;;;;;5.25;1.65;;;;;;;17.53;69.63;101447.41;5030316;28;20415;-70
2022/10/16 10:34:48;;;;;;;8.52;2.70;;;;;;;17.57;70.04;101453.47;5024849;28;20120;-71
2022/10/16 10:38:06;;;;;;;10.27;1.98;;;;;;;17.72;70.17;101449.16;5027211;28;20408;-71
2022/10/16 10:41:15;;;;;;;9.65;2.72;;;;;;;17.99;69.43;101449.56;5024112;28;20124;-70
2022/10/16 10:44:36;;;;;;;12.00;1.92;;;;;;;18.19;66.44;101465.50;5032159;28;20064;-71
2022/10/16 10:48:11;;;;;;;6.75;1.25;;;;;;;18.25;67.86;101460.69;5028544;28;20049;-70
2022/10/16 10:50:49;;;;;;;10.10;1.05;;;;;;;18.30;67.07;101461.31;5027094;28;20921;-72
2022/10/16 10:54:14;;;;;;;5.05;1.30;;;;;;;18.37;67.01;101460.97;5027200;28;20389;-75
2022/10/16 10:56:52;;;;;;;6.15;1.60;;;;;;;18.42;65.03;101458.94;5028273;28;20081;-73
2022/10/16 10:59:54;;;;;;;6.47;1.50;;;;;;;18.53;64.08;101461.88;5030121;28;20064;-73
2022/10/16 11:02:41;;;;;;;5.90;1.63;;;;;;;18.69;65.80;101458.38;5027649;28;20054;-75
2022/10/16 11:06:06;;;;;;;9.32;1.95;;;;;;;18.82;63.80;101459.44;5028075;28;20049;-73
2022/10/16 11:09:15;;;;;;;6.00;1.87;;;;;;;18.59;63.11;101466.88;5020860;28;20612;-72
2022/10/16 11:12:04;;;;;;;8.82;2.15;;;;;;;18.68;64.37;101465.53;5017788;28;20073;-74
2022/10/16 11:14:45;;;;;;;5.35;1.58;;;;;;;18.78;62.49;101458.72;5026718;28;20061;-74
2022/10/16 11:17:21;;;;;;;8.98;1.60;;;;;;;18.85;63.36;101471.75;5032523;28;20042;-72
2022/10/16 11:20:01;;;;;;;6.65;1.85;;;;;;;18.96;61.47;101472.03;5028025;28;20066;-73
2022/10/16 11:22:43;;;;;;;5.78;1.52;;;;;;;18.98;61.18;101467.47;5032868;28;20053;-72
2022/10/16 11:25:23;;;;;;;7.95;1.50;;;;;;;18.96;58.29;101468.53;5033500;28;20050;-73
2022/10/16 11:27:56;;;;;;;5.47;1.23;;;;;;;18.98;58.64;101469.28;5033279;28;20108;-74
2022/10/16 11:30:31;;;;;;;5.60;1.25;;;;;;;19.06;58.85;101472.41;5030231;28;20361;-73
2022/10/16 11:33:08;;;;;;;7.72;1.08;;;;;;;18.96;58.23;101472.03;5029453;28;20037;-72
2022/10/16 11:36:00;;;;;;;12.45;1.70;;;;;;;18.70;59.41;101473.44;5029730;28;20523;-70
2022/10/16 11:38:38;;;;;;;8.77;1.40;;;;;;;18.66;59.93;101469.25;5035993;28;20050;-69
2022/10/16 11:41:45;;;;;;;8.43;1.77;;;;;;;18.72;59.53;101472.41;5034103;28;20168;-70
2022/10/16 11:44:52;;;;;;;5.38;1.20;;;;;;;18.89;58.63;101479.50;5030203;28;20468;-71
2022/10/16 11:47:37;;;;;;;4.53;1.52;;;;;;;19.03;56.55;101480.59;5032086;28;20492;-71
2022/10/16 11:50:45;;;;;;;8.73;1.60;;;;;;;19.12;57.79;101481.88;5041199;28;20496;-72
2022/10/16 11:53:21;;;;;;;6.95;1.20;;;;;;;19.01;55.88;101485.13;5033915;28;20515;-72
2022/10/16 11:55:48;;;;;;;7.03;1.42;;;;;;;18.81;57.30;101484.41;5034741;28;20038;-70
2022/10/16 11:58:27;;;;;;;14.05;1.60;;;;;;;18.66;58.03;101495.94;5040713;28;20076;-70